createdAt,value
2023-02-19T00:01:10.162Z,7.28
2023-02-19T00:04:01.148Z,7.85
2023-02-19T00:06:50.516Z,5.80
2023-02-19T00:09:38.118Z,5.13
2023-02-19T00:12:25.479Z,5.55
2023-02-19T00:15:12.931Z,5.55
2023-02-19T00:18:00.419Z,5.72
2023-02-19T00:20:47.690Z,5.35
2023-02-19T00:23:37.057Z,5.75
2023-02-19T00:26:25.188Z,4.68
2023-02-19T00:29:17.036Z,5.38
2023-02-19T00:32:04.911Z,7.97
2023-02-19T00:34:52.338Z,5.82
2023-02-19T00:37:39.971Z,4.93
2023-02-19T00:40:28.788Z,6.00
2023-02-19T00:43:16.424Z,5.45
2023-02-19T00:46:03.815Z,5.50
2023-02-19T00:48:53.709Z,5.43
2023-02-19T00:51:41.033Z,4.10
2023-02-19T00:54:28.750Z,4.72
2023-02-19T00:57:17.731Z,4.38
2023-02-19T01:00:07.551Z,6.00
2023-02-19T01:02:54.975Z,3.60
2023-02-19T01:05:42.484Z,5.72
2023-02-19T01:08:34.108Z,5.85
2023-02-19T01:11:21.792Z,4.30
2023-02-19T01:14:10.942Z,4.40
2023-02-19T01:16:58.723Z,3.78
2023-02-19T01:19:46.237Z,3.88
2023-02-19T01:22:33.803Z,3.75
2023-02-19T01:25:21.549Z,3.35
2023-02-19T01:28:09.985Z,4.32
2023-02-19T01:31:03.439Z,4.20
2023-02-19T01:33:55.831Z,3.20
2023-02-19T01:36:43.272Z,4.10
2023-02-19T01:39:30.962Z,3.75
2023-02-19T01:42:18.934Z,3.50
2023-02-19T01:45:28.625Z,3.22
2023-02-19T01:48:22.427Z,3.60
2023-02-19T01:51:16.154Z,3.85
2023-02-19T01:54:08.573Z,3.60
2023-02-19T01:56:58.173Z,3.65
2023-02-19T01:59:47.655Z,4.50
2023-02-19T02:02:36.221Z,3.38
2023-02-19T02:05:43.391Z,3.30
2023-02-19T02:08:51.997Z,3.20
2023-02-19T02:11:43.520Z,3.75
2023-02-19T02:14:37.079Z,2.80
2023-02-19T02:17:31.267Z,3.00
2023-02-19T02:20:38.840Z,2.75
2023-02-19T02:23:47.548Z,3.90
2023-02-19T02:27:04.798Z,3.50
2023-02-19T02:30:43.908Z,3.25
2023-02-19T02:33:40.201Z,3.83
2023-02-19T02:36:33.704Z,3.20
2023-02-19T02:39:26.026Z,3.17
2023-02-19T02:42:28.625Z,2.90
2023-02-19T02:45:39.935Z,3.20
2023-02-19T02:48:40.358Z,3.83
2023-02-19T02:51:35.115Z,5.70
2023-02-19T02:54:47.319Z,3.67
2023-02-19T02:57:35.009Z,3.78
2023-02-19T03:00:24.570Z,3.60
2023-02-19T03:03:15.002Z,4.03
2023-02-19T03:06:10.307Z,4.32
2023-02-19T03:09:07.498Z,5.43
2023-02-19T03:12:16.358Z,3.63
2023-02-19T03:15:30.577Z,4.10
2023-02-19T03:18:40.978Z,4.13
2023-02-19T03:21:30.331Z,4.03
2023-02-19T03:24:34.556Z,4.20
2023-02-19T03:27:25.861Z,3.58
2023-02-19T03:30:20.693Z,3.50
2023-02-19T03:33:13.865Z,5.95
2023-02-19T03:36:09.322Z,3.95
2023-02-19T03:39:04.559Z,3.45
2023-02-19T03:42:02.963Z,3.80
2023-02-19T03:45:13.718Z,4.30
2023-02-19T03:48:23.563Z,4.25
2023-02-19T03:51:31.105Z,3.63
2023-02-19T03:54:30.352Z,4.32
2023-02-19T03:57:24.929Z,5.25
2023-02-19T04:00:18.202Z,4.20
2023-02-19T04:03:20.420Z,3.55
2023-02-19T04:06:17.971Z,4.68
2023-02-19T04:09:12.677Z,4.43
2023-02-19T04:12:00.970Z,4.20
2023-02-19T04:14:57.860Z,3.38
2023-02-19T04:17:55.488Z,3.55
2023-02-19T04:20:47.511Z,3.30
2023-02-19T04:23:41.607Z,3.67
2023-02-19T04:26:30.547Z,3.35
2023-02-19T04:29:18.021Z,3.22
2023-02-19T04:32:06.156Z,3.15
2023-02-19T04:34:55.030Z,2.95
2023-02-19T04:37:43.378Z,2.90
2023-02-19T04:40:32.554Z,3.08
2023-02-19T04:43:20.200Z,3.38
2023-02-19T04:46:07.732Z,3.85
2023-02-19T04:48:56.849Z,3.40
2023-02-19T04:51:44.354Z,3.67
2023-02-19T04:54:31.930Z,2.60
2023-02-19T04:57:21.159Z,2.47
2023-02-19T05:00:11.167Z,2.80
2023-02-19T05:02:58.712Z,2.67
2023-02-19T05:05:46.146Z,2.70
2023-02-19T05:08:33.975Z,2.67
2023-02-19T05:11:23.958Z,2.60
2023-02-19T05:14:12.979Z,2.40
2023-02-19T05:17:00.920Z,2.65
2023-02-19T05:19:48.525Z,2.80
2023-02-19T05:22:35.993Z,2.78
2023-02-19T05:25:24.893Z,2.60
2023-02-19T05:28:18.839Z,3.50
2023-02-19T05:31:10.575Z,2.97
2023-02-19T05:33:58.475Z,2.05
2023-02-19T05:36:45.960Z,2.25
2023-02-19T05:39:33.596Z,2.28
2023-02-19T05:42:20.922Z,2.47
2023-02-19T05:45:09.949Z,2.95
2023-02-19T05:47:58.804Z,2.20
2023-02-19T05:50:46.509Z,2.72
2023-02-19T05:53:35.052Z,1.98
2023-02-19T05:56:33.663Z,1.98
2023-02-19T05:59:27.098Z,2.03
2023-02-19T06:02:14.843Z,2.83
2023-02-19T06:05:03.609Z,1.80
2023-02-19T06:07:51.538Z,1.80
2023-02-19T06:10:41.191Z,1.95
2023-02-19T06:13:28.744Z,2.05
2023-02-19T06:16:17.602Z,2.05
2023-02-19T06:19:06.018Z,1.92
2023-02-19T06:21:54.837Z,2.08
2023-02-19T06:24:42.612Z,1.80
2023-02-19T06:27:30.131Z,1.80
2023-02-19T06:30:17.966Z,1.73
2023-02-19T06:33:05.724Z,1.67
2023-02-19T06:35:53.246Z,1.90
2023-02-19T06:38:42.231Z,3.92
2023-02-19T06:41:29.652Z,2.13
2023-02-19T06:44:17.051Z,2.65
2023-02-19T06:47:07.560Z,2.13
2023-02-19T06:49:55.431Z,2.20
2023-02-19T06:52:42.828Z,1.90
2023-02-19T06:55:31.596Z,1.77
2023-02-19T06:58:20.914Z,1.90
2023-02-19T07:01:12.543Z,2.58
2023-02-19T07:04:00.577Z,3.47
2023-02-19T07:06:48.282Z,2.30
2023-02-19T07:09:35.760Z,2.10
2023-02-19T07:12:24.570Z,1.98
2023-02-19T07:15:12.178Z,2.40
2023-02-19T07:18:01.044Z,2.20
2023-02-19T07:20:48.576Z,2.05
2023-02-19T07:23:36.612Z,2.92
2023-02-19T07:26:24.972Z,1.75
2023-02-19T07:29:16.040Z,2.00
2023-02-19T07:32:03.734Z,1.80
2023-02-19T07:34:54.506Z,1.90
2023-02-19T07:37:42.467Z,1.55
2023-02-19T07:40:30.205Z,1.48
2023-02-19T07:43:17.641Z,1.60
2023-02-19T07:46:08.142Z,2.15
2023-02-19T07:48:57.382Z,2.65
2023-02-19T07:51:45.083Z,1.63
2023-02-19T07:54:32.930Z,1.73
2023-02-19T07:57:20.876Z,1.45
2023-02-19T08:00:09.432Z,1.70
2023-02-19T08:03:00.138Z,2.00
2023-02-19T08:05:56.582Z,1.48
2023-02-19T08:08:44.360Z,1.55
2023-02-19T08:11:49.910Z,2.15
2023-02-19T08:14:37.467Z,1.50
2023-02-19T08:17:25.283Z,1.70
2023-02-19T08:20:14.388Z,3.15
2023-02-19T08:23:01.876Z,1.80
2023-02-19T08:25:51.214Z,2.33
2023-02-19T08:28:39.027Z,1.75
2023-02-19T08:31:27.005Z,1.60
2023-02-19T08:34:14.651Z,1.58
2023-02-19T08:37:03.474Z,1.80
2023-02-19T08:39:51.308Z,1.77
2023-02-19T08:42:38.781Z,1.63
2023-02-19T08:45:26.240Z,2.33
2023-02-19T08:48:14.677Z,1.70
2023-02-19T08:51:08.254Z,1.73
2023-02-19T08:53:56.939Z,1.70
2023-02-19T08:56:44.672Z,2.03
2023-02-19T08:59:32.392Z,1.77
2023-02-19T09:02:20.031Z,1.63
2023-02-19T09:05:07.984Z,1.80
2023-02-19T09:07:55.612Z,1.95
2023-02-19T09:10:44.608Z,1.70
2023-02-19T09:13:32.821Z,2.40
2023-02-19T09:16:20.528Z,1.77
2023-02-19T09:19:08.047Z,2.13
2023-02-19T09:21:57.415Z,1.80
2023-02-19T09:24:45.499Z,1.77
2023-02-19T09:27:34.833Z,2.00
2023-02-19T09:30:22.915Z,1.92
2023-02-19T09:33:10.735Z,1.55
2023-02-19T09:36:03.517Z,1.70
2023-02-19T09:38:51.010Z,3.08
2023-02-19T09:41:45.249Z,2.15
2023-02-19T09:44:37.461Z,3.00
2023-02-19T09:47:28.367Z,3.67
2023-02-19T09:50:22.495Z,3.05
2023-02-19T09:53:19.402Z,2.00
2023-02-19T09:56:08.431Z,2.92
2023-02-19T09:59:01.048Z,2.97
2023-02-19T10:01:58.672Z,4.03
2023-02-19T10:04:49.001Z,3.58
2023-02-19T10:07:41.210Z,2.88
2023-02-19T10:10:32.848Z,2.08
2023-02-19T10:13:23.538Z,1.80
2023-02-19T10:16:17.636Z,1.77
2023-02-19T10:19:11.119Z,3.08
2023-02-19T10:21:59.040Z,2.70
2023-02-19T10:24:51.736Z,2.70
2023-02-19T10:27:39.609Z,2.20
2023-02-19T10:30:32.574Z,2.55
2023-02-19T10:33:20.442Z,2.33
2023-02-19T10:36:29.876Z,2.80
2023-02-19T10:39:42.220Z,3.80
2023-02-19T10:42:30.284Z,3.17
2023-02-19T10:45:24.152Z,2.03
2023-02-19T10:48:25.568Z,2.13
2023-02-19T10:51:21.771Z,2.00
2023-02-19T10:54:19.978Z,3.92
2023-02-19T10:57:32.780Z,2.45
2023-02-19T11:00:30.739Z,3.55
2023-02-19T11:03:24.078Z,4.45
2023-02-19T11:06:16.573Z,2.97
2023-02-19T11:09:04.257Z,2.72
2023-02-19T11:11:55.148Z,1.95
2023-02-19T11:14:45.731Z,3.53
2023-02-19T11:17:33.565Z,3.10
2023-02-19T11:20:22.512Z,2.75
2023-02-19T11:23:19.766Z,2.38
2023-02-19T11:26:19.807Z,2.65
2023-02-19T11:29:22.541Z,4.80
2023-02-19T11:32:30.070Z,3.70
2023-02-19T11:35:23.614Z,3.17
2023-02-19T11:38:18.382Z,2.85
2023-02-19T11:41:22.795Z,2.03
2023-02-19T11:44:31.159Z,2.45
2023-02-19T11:48:23.184Z,2.35
2023-02-19T11:51:37.788Z,4.50
2023-02-19T11:54:50.936Z,3.45
2023-02-19T11:57:45.252Z,4.07
2023-02-19T12:00:40.681Z,2.47
2023-02-19T12:03:56.659Z,2.15
2023-02-19T12:07:00.194Z,3.15
2023-02-19T12:10:04.562Z,3.55
2023-02-19T12:13:08.091Z,3.20
2023-02-19T12:16:22.190Z,3.50
2023-02-19T12:19:43.851Z,3.17
2023-02-19T12:22:34.449Z,4.40
2023-02-19T12:25:48.212Z,2.65
2023-02-19T12:29:10.002Z,2.53
2023-02-19T12:32:35.811Z,4.35
2023-02-19T12:35:49.389Z,3.95
2023-02-19T12:38:44.774Z,5.10
2023-02-19T12:41:45.706Z,2.67
2023-02-19T12:44:44.697Z,4.30
2023-02-19T12:47:40.966Z,2.50
2023-02-19T12:50:31.065Z,3.15
2023-02-19T12:53:41.401Z,2.83
2023-02-19T12:56:37.352Z,2.90
2023-02-19T12:59:36.453Z,4.10
2023-02-19T13:02:31.778Z,4.55
2023-02-19T13:05:27.249Z,2.58
2023-02-19T13:08:22.635Z,3.78
2023-02-19T13:11:18.621Z,2.28
2023-02-19T13:14:20.533Z,3.45
2023-02-19T13:17:24.285Z,2.88
2023-02-19T13:20:27.292Z,3.03
2023-02-19T13:23:40.397Z,4.82
2023-02-19T13:27:20.972Z,3.70
2023-02-19T13:30:33.914Z,2.45
2023-02-19T13:36:27.561Z,3.30
2023-02-19T13:39:18.412Z,5.30
2023-02-19T13:42:06.356Z,4.97
2023-02-19T13:44:58.068Z,2.92
2023-02-19T13:48:01.760Z,4.13
2023-02-19T13:50:49.175Z,2.72
2023-02-19T13:54:00.029Z,3.75
2023-02-19T13:56:48.088Z,2.45
2023-02-19T13:59:38.446Z,2.50
2023-02-19T14:02:32.531Z,2.85
2023-02-19T14:06:01.293Z,2.58
2023-02-19T14:08:56.042Z,3.03
2023-02-19T14:12:04.790Z,3.55
2023-02-19T14:14:53.078Z,3.35
2023-02-19T14:17:43.813Z,3.97
2023-02-19T14:20:46.171Z,4.55
2023-02-19T14:23:34.109Z,3.00
2023-02-19T14:26:23.098Z,3.78
2023-02-19T14:29:16.571Z,4.07
2023-02-19T14:32:07.254Z,3.20
2023-02-19T14:34:58.342Z,3.58
2023-02-19T14:37:50.054Z,3.60
2023-02-19T14:40:41.624Z,4.53
2023-02-19T14:43:30.949Z,3.92
2023-02-19T14:46:30.226Z,5.75
2023-02-19T14:49:28.286Z,4.35
2023-02-19T14:52:25.416Z,6.70
2023-02-19T14:55:24.516Z,5.75
2023-02-19T14:58:18.440Z,5.53
2023-02-19T15:01:09.481Z,7.18
2023-02-19T15:03:57.836Z,6.47
2023-02-19T15:06:45.770Z,6.72
2023-02-19T15:09:42.320Z,4.53
2023-02-19T15:12:40.369Z,5.60
2023-02-19T15:15:32.684Z,4.78
2023-02-19T15:18:24.556Z,5.20
2023-02-19T15:21:25.660Z,7.10
2023-02-19T15:24:16.880Z,5.85
2023-02-19T15:27:05.151Z,4.95
2023-02-19T15:29:54.846Z,5.70
2023-02-19T15:32:52.315Z,6.03
2023-02-19T15:35:40.240Z,6.30
2023-02-19T15:38:29.099Z,4.90
2023-02-19T15:41:23.091Z,5.22
2023-02-19T15:44:32.915Z,4.72
2023-02-19T15:47:33.307Z,3.85
2023-02-19T15:50:26.834Z,3.80
2023-02-19T15:53:19.896Z,7.07
2023-02-19T15:59:04.190Z,8.30
2023-02-19T16:01:52.110Z,7.57
2023-02-19T16:04:43.581Z,5.75
2023-02-19T16:07:33.062Z,6.97
2023-02-19T16:10:24.856Z,4.70
2023-02-19T16:13:13.437Z,4.63
2023-02-19T16:16:16.211Z,5.70
2023-02-19T16:19:03.661Z,4.50
2023-02-19T16:21:53.882Z,4.72
2023-02-19T16:24:46.357Z,5.10
2023-02-19T16:27:38.510Z,5.15
2023-02-19T16:30:36.261Z,3.70
2023-02-19T16:33:37.251Z,4.78
2023-02-19T16:36:36.566Z,3.42
2023-02-19T16:39:26.339Z,5.78
2023-02-19T16:42:19.369Z,6.07
2023-02-19T16:45:09.606Z,5.10
2023-02-19T16:47:57.159Z,4.47
2023-02-19T16:50:46.268Z,6.03
2023-02-19T16:53:34.209Z,6.18
2023-02-19T16:56:23.784Z,4.82
2023-02-19T16:59:11.261Z,4.63
2023-02-19T17:01:58.907Z,3.88
2023-02-19T17:04:49.294Z,5.80
2023-02-19T17:07:36.954Z,4.63
2023-02-19T17:10:28.820Z,5.03
2023-02-19T17:13:17.689Z,3.30
2023-02-19T17:16:06.212Z,4.93
2023-02-19T17:18:55.378Z,3.92
2023-02-19T17:21:44.335Z,3.92
2023-02-19T17:24:31.926Z,3.95
2023-02-19T17:27:19.563Z,6.28
2023-02-19T17:30:14.503Z,2.50
2023-02-19T17:33:02.776Z,2.95
2023-02-19T17:35:50.169Z,3.35
2023-02-19T17:38:37.992Z,4.68
2023-02-19T17:41:25.421Z,4.40
2023-02-19T17:44:13.370Z,6.47
2023-02-19T17:47:03.004Z,3.13
2023-02-19T17:49:50.709Z,2.90
2023-02-19T17:52:38.683Z,5.07
2023-02-19T17:55:26.441Z,3.15
2023-02-19T17:58:15.116Z,3.20
2023-02-19T18:01:02.812Z,5.32
2023-02-19T18:03:52.025Z,3.10
2023-02-19T18:06:39.381Z,3.55
2023-02-19T18:09:26.772Z,4.38
2023-02-19T18:12:14.566Z,6.65
2023-02-19T18:15:02.750Z,7.75
2023-02-19T18:17:50.589Z,4.82
2023-02-19T18:20:39.841Z,4.55
2023-02-19T18:23:29.862Z,3.65
2023-02-19T18:26:21.149Z,3.90
2023-02-19T18:29:09.303Z,4.80
2023-02-19T18:31:57.427Z,3.60
2023-02-19T18:34:49.129Z,4.05
2023-02-19T18:37:38.157Z,3.22
2023-02-19T18:40:27.310Z,4.43
2023-02-19T18:43:15.456Z,4.10
2023-02-19T18:46:03.719Z,4.68
2023-02-19T18:48:51.578Z,4.40
2023-02-19T18:51:39.483Z,5.18
2023-02-19T18:54:29.805Z,3.45
2023-02-19T18:57:17.993Z,4.30
2023-02-19T19:00:07.458Z,3.60
2023-02-19T19:02:59.892Z,3.63
2023-02-19T19:05:48.137Z,3.78
2023-02-19T19:08:36.680Z,3.25
2023-02-19T19:11:26.745Z,2.55
2023-02-19T19:14:15.137Z,2.90
2023-02-19T19:17:03.158Z,2.00
2023-02-19T19:19:51.031Z,3.92
2023-02-19T19:22:39.143Z,4.45
2023-02-19T19:25:26.951Z,3.63
2023-02-19T19:28:16.128Z,4.60
2023-02-19T19:31:04.717Z,3.70
2023-02-19T19:33:53.121Z,2.53
2023-02-19T19:36:41.329Z,2.55
2023-02-19T19:39:29.144Z,3.75
2023-02-19T19:42:17.318Z,2.60
2023-02-19T19:45:07.429Z,2.60
2023-02-19T19:47:56.176Z,2.28
2023-02-19T19:50:44.187Z,1.95
2023-02-19T19:53:32.864Z,1.95
2023-02-19T19:56:20.897Z,3.67
2023-02-19T19:59:10.493Z,2.10
2023-02-19T20:02:01.859Z,4.07
2023-02-19T20:04:50.002Z,2.75
2023-02-19T20:07:37.861Z,3.97
2023-02-19T20:10:26.066Z,2.47
2023-02-19T20:13:16.560Z,2.15
2023-02-19T20:16:04.378Z,3.78
2023-02-19T20:18:53.491Z,1.73
2023-02-19T20:21:44.695Z,1.90
2023-02-19T20:24:32.670Z,4.53
2023-02-19T20:27:22.048Z,2.13
2023-02-19T20:30:12.318Z,2.47
2023-02-19T20:32:59.962Z,3.25
2023-02-19T20:35:50.381Z,2.47
2023-02-19T20:38:43.441Z,2.80
2023-02-19T20:41:31.662Z,2.25
2023-02-19T20:44:22.422Z,2.10
2023-02-19T20:47:13.248Z,2.67
2023-02-19T20:50:02.208Z,1.65
2023-02-19T20:52:51.829Z,3.03
2023-02-19T20:55:40.305Z,3.63
2023-02-19T20:58:28.304Z,3.13
2023-02-19T21:01:15.974Z,2.78
2023-02-19T21:04:03.916Z,2.40
2023-02-19T21:06:52.329Z,3.25
2023-02-19T21:09:44.899Z,4.78
2023-02-19T21:12:33.620Z,2.65
2023-02-19T21:15:21.497Z,2.92
2023-02-19T21:18:09.211Z,3.42
2023-02-19T21:20:57.456Z,2.25
2023-02-19T21:23:45.323Z,5.20
2023-02-19T21:26:40.170Z,3.75
2023-02-19T21:29:28.085Z,4.90
2023-02-19T21:32:17.360Z,4.68
2023-02-19T21:35:05.922Z,1.92
2023-02-19T21:37:55.731Z,2.47
2023-02-19T21:40:43.681Z,2.10
2023-02-19T21:43:33.330Z,3.60
2023-02-19T21:46:21.495Z,2.42
2023-02-19T21:49:13.698Z,3.65
2023-02-19T21:52:01.540Z,4.10
2023-02-19T21:54:49.303Z,2.15
2023-02-19T21:57:37.246Z,2.38
2023-02-19T22:00:26.699Z,2.40
2023-02-19T22:03:17.367Z,1.80
2023-02-19T22:06:05.664Z,5.05
2023-02-19T22:08:53.718Z,1.70
2023-02-19T22:11:41.792Z,1.95
2023-02-19T22:14:29.647Z,3.20
2023-02-19T22:17:19.238Z,4.85
2023-02-19T22:20:08.407Z,2.75
2023-02-19T22:22:56.080Z,1.90
2023-02-19T22:25:44.022Z,3.90
2023-02-19T22:28:32.114Z,2.38
2023-02-19T22:31:22.401Z,3.08
2023-02-19T22:34:11.788Z,3.28
2023-02-19T22:36:59.797Z,2.80
2023-02-19T22:39:47.445Z,2.67
2023-02-19T22:42:36.111Z,4.05
2023-02-19T22:45:25.158Z,3.53
2023-02-19T22:48:16.902Z,2.63
2023-02-19T22:51:13.021Z,3.47
2023-02-19T22:54:01.716Z,2.88
2023-02-19T22:56:49.705Z,3.63
2023-02-19T22:59:37.757Z,5.22
2023-02-19T23:02:25.518Z,8.02
2023-02-19T23:05:13.595Z,4.32
2023-02-19T23:08:02.834Z,5.50
2023-02-19T23:10:50.835Z,5.40
2023-02-19T23:13:38.380Z,3.03
2023-02-19T23:16:26.947Z,3.20
2023-02-19T23:19:16.476Z,4.82
2023-02-19T23:22:04.430Z,3.90
2023-02-19T23:24:53.678Z,5.57
2023-02-19T23:27:41.569Z,3.80
2023-02-19T23:30:29.820Z,5.68
2023-02-19T23:33:17.770Z,5.15
2023-02-19T23:36:06.304Z,5.55
2023-02-19T23:38:53.962Z,5.53
2023-02-19T23:41:48.058Z,8.95
2023-02-19T23:44:35.962Z,4.45
2023-02-19T23:47:25.779Z,4.00
2023-02-19T23:50:13.855Z,9.77
2023-02-19T23:53:01.529Z,5.53
2023-02-19T23:55:49.394Z,5.35
2023-02-19T23:58:38.875Z,6.72
